Time;durP1;ratioP1;P1;durP2;ratioP2;P2;SDS_P1;SDS_P2;PMS_P1;PMS_P2;Temp;Humidity;BMP_temperature;BMP_pressure;BME280_temperature;BME280_humidity;BME280_pressure;Samples;Min_cycle;Max_cycle;Signal;HPM_P1;HPM_P2
2021/08/12 00:00:23;;;;;;;7.60;4.72;;;25.30;78.00;;;;;;5055506;28;20033;-47
2021/08/12 00:02:48;;;;;;;7.80;4.47;;;25.10;78.90;;;;;;5055277;28;20031;-46
2021/08/12 00:05:14;;;;;;;15.05;5.45;;;25.20;78.70;;;;;;5004039;28;20372;-47
2021/08/12 00:07:40;;;;;;;7.43;4.55;;;25.20;78.50;;;;;;5055261;28;20025;-46
2021/08/12 00:10:07;;;;;;;9.95;4.80;;;25.20;78.30;;;;;;5070513;28;20072;-46
2021/08/12 00:12:33;;;;;;;12.05;4.70;;;;;;;;;;5032491;28;20401;-47
2021/08/12 00:14:59;;;;;;;7.65;4.38;;;;;;;;;;5033594;28;20061;-46
2021/08/12 00:17:25;;;;;;;7.45;4.43;;;24.50;97.30;;;;;;5049681;28;20436;-46
2021/08/12 00:19:51;;;;;;;8.65;4.78;;;;;;;;;;5033091;28;20029;-46
2021/08/12 00:22:17;;;;;;;6.75;4.95;;;;;;;;;;5049731;28;20088;-46
2021/08/12 00:24:43;;;;;;;8.23;5.38;;;;;;;;;;5033506;28;20091;-46
2021/08/12 00:27:09;;;;;;;6.05;4.13;;;;;;;;;;5016775;28;20493;-45
2021/08/12 00:29:36;;;;;;;6.78;4.65;;;;;;;;;;5032799;28;20473;-46
2021/08/12 00:32:02;;;;;;;12.30;4.13;;;;;;;;;;5032852;28;20029;-46
2021/08/12 00:34:28;;;;;;;8.73;4.20;;;;;;;;;;5033217;28;20048;-46
2021/08/12 00:36:54;;;;;;;5.57;4.07;;;;;;;;;;5015988;28;20050;-46
2021/08/12 00:39:20;;;;;;;7.78;4.70;;;;;;;;;;5032683;28;20037;-46
2021/08/12 00:41:46;;;;;;;8.18;4.80;;;;;;;;;;5032600;28;20111;-46
2021/08/12 00:44:12;;;;;;;5.93;4.53;;;;;;;;;;5032895;28;20407;-46
2021/08/12 00:46:39;;;;;;;10.18;4.60;;;;;;;;;;5049225;28;20564;-45
2021/08/12 00:49:05;;;;;;;6.90;4.93;;;;;;;;;;5035304;28;20068;-46
2021/08/12 00:51:31;;;;;;;9.90;4.63;;;;;;;;;;5054364;28;20029;-46
2021/08/12 00:53:58;;;;;;;7.55;3.88;;;;;;;;;;5054325;28;20032;-46
2021/08/12 00:56:27;;;;;;;5.45;3.95;;;;;;;;;;5054623;28;20044;-46
2021/08/12 00:58:54;;;;;;;6.72;4.50;;;;;;;;;;5054173;28;20040;-46
2021/08/12 01:01:20;;;;;;;6.40;4.70;;;;;;;;;;5053457;28;20028;-46
2021/08/12 01:03:46;;;;;;;7.30;4.43;;;;;;;;;;5054082;28;20064;-46
2021/08/12 01:06:14;;;;;;;6.82;4.72;;;;;;;;;;5052281;28;20106;-46
2021/08/12 01:08:49;;;;;;;8.10;4.72;;;;;;;;;;5054205;28;20068;-46
2021/08/12 01:11:47;;;;;;;8.43;4.82;;;;;;;;;;5054045;28;20112;-46
2021/08/12 01:14:13;;;;;;;8.27;4.85;;;;;;;;;;5032193;28;20060;-46
2021/08/12 01:16:46;;;;;;;7.35;4.28;;;;;;;;;;5032081;28;20467;-46
2021/08/12 01:19:14;;;;;;;7.10;4.15;;;;;;;;;;5031957;28;20029;-46
2021/08/12 01:21:58;;;;;;;6.45;4.00;;;;;;;;;;5031859;28;20025;-46
2021/08/12 01:24:26;;;;;;;7.45;4.20;;;;;;;;;;5032044;28;20075;-46
2021/08/12 01:26:54;;;;;;;5.97;4.00;;;;;;;;;;5031883;28;20025;-46
2021/08/12 01:29:46;;;;;;;7.70;4.72;;;;;;;;;;5031614;28;20485;-46
2021/08/12 01:32:21;;;;;;;6.80;4.13;;;;;;;;;;5029198;28;20033;-46
2021/08/12 01:34:58;;;;;;;8.13;4.63;;;;;;;;;;5015130;28;20033;-46
2021/08/12 01:37:27;;;;;;;7.47;4.15;;;;;;;;;;5031688;28;20136;-45
2021/08/12 01:39:54;;;;;;;6.93;3.85;;;;;;;;;;5031640;28;20029;-46
2021/08/12 01:42:20;;;;;;;9.35;4.15;;;;;;;;;;5031589;28;20026;-46
2021/08/12 01:44:47;;;;;;;14.30;4.65;;;;;;;;;;5031509;28;20025;-46
2021/08/12 01:47:13;;;;;;;9.07;4.03;;;;;;;;;;5031532;28;20026;-46
2021/08/12 01:49:41;;;;;;;7.68;4.13;;;;;;;;;;5041235;28;20040;-46
2021/08/12 01:52:08;;;;;;;8.75;4.80;;;;;;;;;;5053336;28;20048;-46
2021/08/12 01:54:35;;;;;;;6.72;4.47;;;;;;;;;;5053791;28;20036;-45
2021/08/12 01:57:01;;;;;;;7.05;3.80;;;;;;;;;;5053199;28;20033;-46
2021/08/12 01:59:28;;;;;;;9.13;4.40;;;;;;;;;;5053466;28;20040;-46
2021/08/12 02:01:54;;;;;;;8.45;4.00;;;;;;;;;;5053224;28;20052;-46
2021/08/12 02:04:21;;;;;;;6.93;4.20;;;;;;;;;;5053178;28;20492;-46
2021/08/12 02:06:48;;;;;;;8.77;4.35;;;;;;;;;;5053327;28;20095;-46
2021/08/12 02:09:14;;;;;;;6.13;3.75;;;;;;;;;;5053236;28;20402;-46
2021/08/12 02:11:40;;;;;;;4.53;3.80;;;;;;;;;;5053666;28;20060;-45
2021/08/12 02:14:06;;;;;;;6.10;4.10;;;;;;;;;;5057222;28;20108;-46
2021/08/12 02:16:33;;;;;;;8.15;4.28;;;;;;;;;;5057225;28;20068;-45
2021/08/12 02:18:59;;;;;;;5.30;4.10;;;;;;;;;;5072310;28;20033;-46
2021/08/12 02:21:46;;;;;;;4.85;3.90;;;;;;;;;;5057277;28;20031;-46
2021/08/12 02:24:41;;;;;;;7.03;4.28;;;;;;;;;;5057301;28;20097;-46
2021/08/12 02:27:10;;;;;;;10.25;4.88;;;;;;;;;;5035029;28;20045;-46
2021/08/12 02:29:38;;;;;;;5.88;4.20;;;;;;;;;;5035158;28;20038;-46
2021/08/12 02:32:08;;;;;;;7.07;4.07;;;;;;;;;;5035120;28;20168;-46
2021/08/12 02:34:35;;;;;;;5.65;4.10;;;;;;;;;;5018689;28;20142;-46
2021/08/12 02:37:03;;;;;;;9.02;4.60;;;;;;;;;;5018267;28;20073;-46
2021/08/12 02:39:30;;;;;;;6.47;4.35;;;;;;;;;;4985887;28;20041;-46
2021/08/12 02:41:56;;;;;;;6.03;4.75;;;;;;;;;;5018449;28;20053;-45
2021/08/12 02:44:22;;;;;;;14.27;5.22;;;;;;;;;;5035049;28;20488;-46
2021/08/12 02:46:49;;;;;;;7.28;4.85;;;;;;;;;;5034789;28;20025;-46
2021/08/12 02:49:15;;;;;;;6.30;4.60;;;;;;;;;;5034654;28;20033;-46
2021/08/12 02:51:42;;;;;;;7.18;4.72;;;;;;;;;;5029822;28;20044;-46
2021/08/12 02:54:09;;;;;;;10.65;4.47;;;;;;;;;;5034655;28;20045;-46
2021/08/12 02:56:36;;;;;;;8.50;4.90;;;;;;;;;;5034497;28;20065;-46
2021/08/12 02:59:03;;;;;;;8.95;5.18;;;;;;;;;;5034455;28;20584;-46
2021/08/12 03:01:30;;;;;;;7.57;4.88;;;;;;;;;;5034533;28;20036;-46
2021/08/12 03:03:58;;;;;;;7.22;4.88;;;;;;;;;;5049236;28;20037;-46
2021/08/12 03:06:24;;;;;;;7.18;4.90;;;;;;;;;;5056752;28;20392;-46
2021/08/12 03:08:52;;;;;;;12.63;4.85;;;;;;;;;;5056559;28;20099;-46
2021/08/12 03:11:19;;;;;;;12.82;5.18;;;;;;;;;;5056189;28;20021;-46
2021/08/12 03:13:46;;;;;;;6.82;4.65;;;;;;;;;;5056467;28;20029;-46
2021/08/12 03:16:12;;;;;;;14.55;6.38;;;;;;;;;;5056598;28;20025;-46
2021/08/12 03:18:38;;;;;;;7.25;5.45;;;;;;;;;;5056164;28;20033;-46
2021/08/12 03:21:06;;;;;;;13.65;6.15;;;;;;;;;;5056287;28;20469;-46
2021/08/12 03:23:32;;;;;;;9.88;5.43;;;;;;;;;;5055562;28;20024;-46
2021/08/12 03:25:58;;;;;;;6.55;4.72;;;;;;;;;;5056350;28;20029;-46
2021/08/12 03:28:24;;;;;;;7.70;4.60;;;;;;;;;;5056486;28;20059;-46
2021/08/12 03:30:50;;;;;;;5.90;4.95;;;;;;;;;;5056165;28;20028;-46
2021/08/12 03:33:16;;;;;;;6.97;5.13;;;;;;;;;;5054172;28;20033;-45
2021/08/12 03:35:42;;;;;;;6.25;4.70;;;;;;;;;;5054146;28;20040;-46
2021/08/12 03:38:08;;;;;;;6.57;4.80;;;;;;;;;;5055738;28;20079;-46
2021/08/12 03:40:35;;;;;;;6.05;4.55;;;;;;;;;;5056073;28;20040;-45
2021/08/12 03:43:01;;;;;;;7.85;4.13;;;;;;;;;;5055682;28;20025;-46
2021/08/12 03:45:27;;;;;;;9.43;4.80;;;;;;;;;;5054058;28;20037;-46
2021/08/12 03:47:53;;;;;;;8.45;4.63;;;;;;;;;;5053948;28;20037;-46
2021/08/12 03:50:19;;;;;;;6.80;5.20;;;;;;;;;;5055662;28;20057;-46
2021/08/12 03:52:45;;;;;;;7.00;4.72;;;;;;;;;;5055505;28;20457;-45
2021/08/12 03:55:12;;;;;;;8.27;4.35;;;;;;;;;;5053620;28;20082;-46
2021/08/12 03:57:44;;;;;;;7.13;4.65;;;;;;;;;;5055503;28;20036;-45
2021/08/12 04:00:12;;;;;;;7.50;4.13;;;;;;;;;;5054808;28;20369;-46
2021/08/12 04:02:38;;;;;;;5.80;4.32;;;;;;;;;;5054741;28;20025;-46
2021/08/12 04:05:04;;;;;;;5.80;4.43;;;;;;;;;;5053237;28;20036;-45
2021/08/12 04:07:31;;;;;;;6.70;4.38;;;;;;;;;;5053470;28;20040;-46
2021/08/12 04:09:57;;;;;;;6.63;4.03;;;;;;;;;;5053530;28;20040;-45
2021/08/12 04:12:23;;;;;;;6.97;4.80;;;;;;;;;;5055358;28;20048;-45
2021/08/12 04:14:49;;;;;;;7.93;5.00;;;;;;;;;;5053196;28;20082;-45
2021/08/12 04:17:15;;;;;;;9.43;4.63;;;;;;;;;;5054989;28;20090;-45
2021/08/12 04:19:42;;;;;;;7.75;4.32;;;;;;;;;;5055085;28;20029;-46
2021/08/12 04:22:08;;;;;;;5.72;3.95;;;;;;;;;;5054915;28;20025;-45
2021/08/12 04:24:35;;;;;;;5.70;4.13;;;;;;;;;;5054274;28;20021;-46
2021/08/12 04:27:01;;;;;;;5.72;3.75;;;;;;;;;;5054871;28;20127;-46
2021/08/12 04:29:27;;;;;;;8.65;4.25;;;;;;;;;;5053133;28;20037;-45
2021/08/12 04:31:53;;;;;;;6.35;4.43;;;;;;;;;;5053144;28;20087;-45
2021/08/12 04:34:19;;;;;;;8.32;4.10;;;;;;;;;;5054425;28;20060;-45
2021/08/12 04:36:45;;;;;;;12.60;5.45;;;;;;;;;;5053811;28;20040;-46
2021/08/12 04:39:11;;;;;;;10.13;4.70;;;;;;;;;;5054725;28;20036;-45
2021/08/12 04:41:38;;;;;;;12.55;6.55;;;;;;;;;;5054538;28;20111;-45
2021/08/12 04:44:04;;;;;;;8.23;4.80;;;;;;;;;;5054520;28;20056;-46
2021/08/12 04:46:30;;;;;;;8.70;5.40;;;;;;;;;;5054568;28;20029;-45
2021/08/12 04:48:56;;;;;;;10.90;4.40;;;;;;;;;;5052935;28;20037;-46
2021/08/12 04:51:22;;;;;;;7.00;4.28;;;;;;;;;;5054924;28;20067;-45
2021/08/12 04:53:48;;;;;;;5.85;4.57;;;;;;;;;;5035839;28;20084;-46
2021/08/12 04:56:14;;;;;;;9.07;5.22;;;;;;;;;;5054365;28;20071;-45
2021/08/12 04:58:40;;;;;;;5.88;4.43;;;;;;;;;;5052602;28;20041;-46
2021/08/12 05:01:06;;;;;;;8.55;4.40;;;;;;;;;;5052636;28;20171;-45
2021/08/12 05:03:33;;;;;;;8.57;4.13;;;;;;;;;;5054297;28;20033;-45
2021/08/12 05:06:03;;;;;;;6.13;4.22;;;;;;;;;;5052196;28;20074;-46
2021/08/12 05:08:29;;;;;;;17.15;4.63;;;;;;;;;;5054114;28;20029;-45
2021/08/12 05:10:55;;;;;;;7.10;4.30;;;;;;;;;;5069130;28;20037;-45
2021/08/12 05:13:21;;;;;;;6.07;3.92;;;;;;;;;;5035699;28;20643;-45
2021/08/12 05:15:47;;;;;;;4.90;3.83;;;;;;;;;;5053564;28;20033;-46
2021/08/12 05:18:13;;;;;;;7.68;3.95;;;;;;;;;;5053826;28;20033;-46
2021/08/12 05:20:40;;;;;;;5.35;4.18;;;;;;;;;;5053775;28;20425;-46
2021/08/12 05:23:06;;;;;;;8.93;4.47;;;;;;;;;;5054099;28;20073;-45
2021/08/12 05:25:32;;;;;;;7.82;4.30;;;;;;;;;;5053960;28;20060;-45
2021/08/12 05:27:58;;;;;;;10.63;4.55;;;;;;;;;;5053746;28;20032;-45
2021/08/12 05:30:24;;;;;;;6.53;4.57;;;;;;;;;;5053535;28;20035;-45
2021/08/12 05:32:50;;;;;;;6.70;4.60;;;;;;;;;;5053739;28;20029;-45
2021/08/12 05:35:17;;;;;;;4.88;4.30;;;;;;;;;;5035264;28;20125;-46
2021/08/12 05:37:43;;;;;;;6.28;4.30;;;;;;;;;;5050397;28;20041;-46
2021/08/12 05:40:09;;;;;;;8.93;4.45;;;;;;;;;;5051498;28;20032;-46
2021/08/12 05:42:35;;;;;;;10.30;4.68;;;;;;;;;;5053966;28;20093;-46
2021/08/12 05:45:01;;;;;;;6.03;4.57;;;;;;;;;;5067941;28;20520;-45
2021/08/12 05:47:28;;;;;;;8.00;4.15;;;;;;;;;;5052897;28;20027;-47
2021/08/12 05:49:54;;;;;;;5.75;4.15;;;;;;;;;;5053017;28;20112;-47
2021/08/12 05:52:20;;;;;;;8.18;4.20;;;;;;;;;;5052789;28;20032;-45
2021/08/12 05:54:46;;;;;;;6.35;4.88;;;;;;;;;;5067442;28;20040;-54
2021/08/12 05:57:12;;;;;;;7.40;4.57;;;;;;;;;;5052937;28;20036;-51
2021/08/12 05:59:38;;;;;;;6.95;4.40;;;;;;;;;;5052866;28;20757;-50
2021/08/12 06:02:04;;;;;;;6.80;4.40;;;;;;;;;;5053481;28;20036;-50
2021/08/12 06:04:30;;;;;;;8.10;4.30;;;;;;;;;;5068104;28;20364;-48
2021/08/12 06:06:57;;;;;;;12.30;5.13;;;;;;;;;;5052939;28;20089;-50
2021/08/12 06:09:24;;;;;;;6.43;4.45;;;;;;;;;;5000185;28;20056;-48
2021/08/12 06:11:50;;;;;;;8.98;4.47;;;;;;;;;;5065378;28;20044;-48
2021/08/12 06:14:16;;;;;;;9.68;4.18;;;;;;;;;;5050676;28;20048;-48
2021/08/12 06:16:42;;;;;;;5.93;4.20;;;;;;;;;;5052503;28;20033;-48
2021/08/12 06:19:09;;;;;;;9.57;3.67;;;;;;;;;;5052948;28;20024;-49
2021/08/12 06:21:35;;;;;;;8.02;5.13;;;;;;;;;;5052549;28;20033;-49
2021/08/12 06:24:01;;;;;;;6.10;4.70;;;;;;;;;;5052268;28;20041;-48
2021/08/12 06:26:27;;;;;;;9.82;4.70;;;;;;;;;;5052465;28;20108;-49
2021/08/12 06:28:53;;;;;;;7.03;4.80;;;;;;;;;;5050344;28;20033;-49
2021/08/12 06:31:20;;;;;;;8.38;4.72;;;;;;;;;;5051982;28;20033;-49
2021/08/12 06:33:46;;;;;;;9.23;4.75;;;;;;;;;;5052766;28;20345;-51
2021/08/12 06:36:12;;;;;;;13.05;6.03;;;;;;;;;;5050967;28;20041;-49
2021/08/12 06:38:38;;;;;;;8.07;4.80;;;;;;;;;;5051546;28;20078;-49
2021/08/12 06:41:05;;;;;;;10.57;5.03;;;;;;;;;;5051766;28;20178;-49
2021/08/12 06:43:31;;;;;;;9.85;4.60;;;;;;;;;;5052746;28;20036;-49
2021/08/12 06:45:57;;;;;;;7.68;4.53;;;;;;;;;;5051682;28;20079;-46
2021/08/12 06:48:23;;;;;;;10.55;4.88;;;;;;;;;;5051550;28;20029;-49
2021/08/12 06:50:49;;;;;;;6.35;4.80;;;;;;;;;;5034221;28;20479;-49
2021/08/12 06:53:15;;;;;;;10.25;5.22;;;;;;;;;;5066925;28;20403;-49
2021/08/12 06:55:41;;;;;;;6.93;5.07;;;;;;;;;;5052624;28;20025;-47
2021/08/12 06:58:08;;;;;;;9.68;5.38;;;;;;;;;;5049962;28;20041;-49
2021/08/12 07:00:34;;;;;;;8.43;4.72;;;;;;;;;;5055679;28;20029;-49
2021/08/12 07:03:00;;;;;;;10.23;5.72;;;;;;;;;;5056714;28;20056;-49
2021/08/12 07:05:26;;;;;;;10.20;4.82;;;26.90;91.70;;;;;;5020707;28;20037;-49
2021/08/12 07:07:52;;;;;;;9.40;5.00;;;27.30;94.10;;;;;;5070609;28;20055;-48
2021/08/12 07:10:18;;;;;;;8.90;4.97;;;27.60;95.00;;;;;;5056191;28;20057;-48
2021/08/12 07:12:44;;;;;;;7.82;4.75;;;27.70;95.70;;;;;;5055413;28;20036;-49
2021/08/12 07:15:10;;;;;;;8.63;5.00;;;;;;;;;;5070633;28;20037;-49
2021/08/12 07:17:36;;;;;;;6.85;4.28;;;;;;;;;;5055938;28;20037;-49
2021/08/12 07:20:05;;;;;;;9.27;4.22;;;;;;;;;;5056161;28;20121;-51
2021/08/12 07:22:31;;;;;;;5.70;3.83;;;;;;;;;;5055801;28;20029;-49
2021/08/12 07:24:59;;;;;;;8.13;4.30;;;;;;;;;;5055961;28;20037;-49
2021/08/12 07:27:26;;;;;;;10.38;4.18;;;;;;;;;;5056002;28;20384;-49
2021/08/12 07:29:52;;;;;;;8.18;4.30;;;;;;;;;;5055440;28;20033;-49
2021/08/12 07:32:18;;;;;;;7.22;3.78;;;;;;;;;;5055896;28;20037;-49
2021/08/12 07:34:44;;;;;;;6.47;3.97;;;;;;;;;;5055674;28;20032;-49
2021/08/12 07:37:10;;;;;;;10.85;4.07;;;;;;;;;;5055543;28;20041;-49
2021/08/12 07:39:36;;;;;;;11.63;5.57;;;;;;;;;;5052758;28;20075;-49
2021/08/12 07:42:02;;;;;;;6.78;4.07;;;28.60;67.70;;;;;;5056787;28;20125;-49
2021/08/12 07:44:28;;;;;;;11.73;4.63;;;28.80;68.80;;;;;;5018765;28;20476;-50
2021/08/12 07:46:54;;;;;;;5.75;4.05;;;29.00;67.60;;;;;;5054696;28;20040;-49
2021/08/12 07:49:20;;;;;;;7.97;4.25;;;29.10;68.00;;;;;;5052465;28;20041;-49
2021/08/12 07:51:46;;;;;;;9.00;4.25;;;29.10;66.90;;;;;;5054617;28;20112;-49
2021/08/12 07:54:11;;;;;;;8.15;3.95;;;29.20;66.30;;;;;;5054609;28;20035;-49
2021/08/12 07:56:40;;;;;;;14.38;4.70;;;29.20;66.40;;;;;;5051714;28;20056;-47
2021/08/12 07:59:09;;;;;;;6.40;3.72;;;29.20;66.90;;;;;;5072147;28;20048;-45
2021/08/12 08:01:37;;;;;;;7.35;4.10;;;29.30;64.30;;;;;;5024695;28;20051;-48
2021/08/12 08:04:04;;;;;;;8.50;4.07;;;29.50;66.60;;;;;;5072464;28;20052;-48
2021/08/12 08:06:29;;;;;;;6.60;3.75;;;29.70;65.00;;;;;;5055825;28;20044;-48
2021/08/12 08:08:56;;;;;;;9.48;3.97;;;29.60;64.00;;;;;;5056338;28;20674;-48
2021/08/12 08:11:21;;;;;;;7.28;3.78;;;29.80;62.70;;;;;;5072774;28;20039;-48
2021/08/12 08:13:47;;;;;;;4.22;3.50;;;29.90;64.30;;;;;;5055431;28;20395;-48
2021/08/12 08:16:14;;;;;;;4.90;3.10;;;30.20;63.80;;;;;;5071943;28;20664;-48
2021/08/12 08:18:39;;;;;;;6.13;3.53;;;30.20;61.90;;;;;;5071208;28;20055;-49
2021/08/12 08:21:05;;;;;;;6.38;3.97;;;30.60;61.60;;;;;;5072483;28;20115;-52
2021/08/12 08:23:31;;;;;;;7.50;4.55;;;30.40;63.10;;;;;;5072844;28;20112;-48
2021/08/12 08:25:57;;;;;;;5.95;3.63;;;;;;;;;;5071467;28;20040;-48
2021/08/12 08:28:22;;;;;;;5.85;3.30;;;30.80;60.10;;;;;;5072182;28;20671;-48
2021/08/12 08:30:48;;;;;;;5.25;3.65;;;30.80;60.10;;;;;;5035823;28;20139;-48
2021/08/12 08:33:14;;;;;;;6.20;3.50;;;30.90;61.10;;;;;;5067186;28;20037;-47
2021/08/12 08:35:40;;;;;;;6.38;3.00;;;31.10;58.50;;;;;;5053660;28;20112;-52
2021/08/12 08:38:05;;;;;;;6.88;3.88;;;31.30;60.50;;;;;;5026832;28;20045;-48
2021/08/12 08:40:34;;;;;;;5.40;3.25;;;31.40;59.10;;;;;;5054621;28;20036;-50
2021/08/12 08:43:01;;;;;;;6.30;2.92;;;31.30;58.20;;;;;;5054159;28;20111;-49
2021/08/12 08:45:28;;;;;;;7.07;3.95;;;;;;;;;;5052313;28;20045;-50
2021/08/12 08:47:55;;;;;;;4.47;3.20;;;31.60;91.60;;;;;;5053897;28;20087;-49
2021/08/12 08:50:25;;;;;;;4.82;3.58;;;;;;;;;;5053510;28;20443;-49
2021/08/12 08:52:52;;;;;;;9.93;3.75;;;31.80;57.60;;;;;;5054026;28;20108;-49
2021/08/12 08:55:25;;;;;;;4.40;3.08;;;;;;;;;;5054125;28;20033;-49
2021/08/12 08:57:56;;;;;;;5.68;2.83;;;32.00;68.30;;;;;;5053065;28;20449;-50
2021/08/12 09:00:22;;;;;;;4.73;2.60;;;;;;;;;;5054137;28;20036;-49
2021/08/12 09:02:49;;;;;;;5.20;2.97;;;;;;;;;;5053569;28;20037;-49
2021/08/12 09:05:15;;;;;;;7.07;3.25;;;;;;;;;;5053066;28;20404;-49
2021/08/12 09:07:42;;;;;;;7.38;3.38;;;;;;;;;;5053602;28;20473;-49
2021/08/12 09:10:09;;;;;;;5.18;3.00;;;;;;;;;;5053581;28;20040;-49
2021/08/12 09:12:36;;;;;;;6.03;3.75;;;;;;;;;;5052794;28;20040;-49
2021/08/12 09:15:08;;;;;;;5.95;3.55;;;;;;;;;;5053316;28;20500;-49
2021/08/12 09:17:34;;;;;;;9.32;3.90;;;;;;;;;;5053366;28;20040;-49
2021/08/12 09:20:13;;;;;;;11.82;3.38;;;;;;;;;;5052912;28;20028;-50
2021/08/12 09:22:51;;;;;;;5.50;3.60;;;;;;;;;;5052728;28;20041;-49
2021/08/12 09:25:44;;;;;;;7.30;4.03;;;33.60;70.50;;;;;;5067992;28;20052;-50
2021/08/12 09:28:17;;;;;;;8.50;3.45;;;;;;;;;;5052883;28;20048;-49
2021/08/12 09:30:49;;;;;;;4.55;3.28;;;33.80;53.30;;;;;;5053205;28;20043;-49
2021/08/12 09:33:17;;;;;;;5.57;3.00;;;33.90;54.30;;;;;;5053058;28;20032;-49
2021/08/12 09:35:44;;;;;;;7.18;3.53;;;34.10;53.00;;;;;;5067242;28;20048;-50
2021/08/12 09:38:13;;;;;;;7.05;3.40;;;33.90;53.00;;;;;;5067674;28;20045;-49
2021/08/12 09:40:39;;;;;;;8.70;3.83;;;;;;;;;;5052929;28;20107;-49
2021/08/12 09:43:07;;;;;;;8.75;4.38;;;34.30;53.00;;;;;;5052244;28;20417;-50
2021/08/12 09:45:35;;;;;;;7.20;3.88;;;34.10;53.20;;;;;;5063462;28;20048;-48
2021/08/12 09:48:19;;;;;;;9.02;4.97;;;34.50;53.90;;;;;;5053499;28;20029;-49
2021/08/12 09:51:09;;;;;;;13.82;3.80;;;34.40;53.30;;;;;;5101821;28;20043;-48
2021/08/12 09:53:35;;;;;;;5.55;3.80;;;34.30;53.20;;;;;;5053849;28;20044;-48
2021/08/12 09:56:12;;;;;;;8.10;3.08;;;34.60;53.00;;;;;;5053383;28;20112;-45
2021/08/12 09:58:38;;;;;;;4.40;3.00;;;;;;;;;;5053175;28;20033;-46
2021/08/12 10:01:18;;;;;;;4.88;3.58;;;;;;;;;;5052469;28;20029;-49
2021/08/12 10:03:45;;;;;;;5.60;3.28;;;34.50;50.30;;;;;;5053121;28;20027;-47
2021/08/12 10:06:21;;;;;;;8.00;3.75;;;34.50;51.00;;;;;;5052851;28;20465;-49
2021/08/12 10:08:47;;;;;;;7.20;4.05;;;34.40;52.70;;;;;;5050792;28;20048;-46
2021/08/12 10:11:26;;;;;;;5.57;3.78;;;34.80;53.20;;;;;;5052161;28;20021;-47
2021/08/12 10:13:58;;;;;;;4.38;3.58;;;35.10;52.10;;;;;;5050647;28;20484;-47
2021/08/12 10:16:26;;;;;;;6.32;3.45;;;35.00;50.10;;;;;;5051019;28;20570;-50
2021/08/12 10:18:54;;;;;;;5.95;3.08;;;34.90;50.60;;;;;;5051719;28;20037;-51
2021/08/12 10:21:20;;;;;;;6.90;4.07;;;34.80;50.60;;;;;;5051837;28;20025;-52
2021/08/12 10:23:48;;;;;;;9.77;3.88;;;;;;;;;;5053011;28;20029;-47
2021/08/12 10:26:16;;;;;;;6.60;3.65;;;;;;;;;;5053200;28;20032;-51
2021/08/12 10:28:43;;;;;;;6.45;4.30;;;;;;;;;;5052828;28;20040;-58
2021/08/12 10:31:09;;;;;;;9.75;4.38;;;;;;;;;;5049571;28;20049;-48
2021/08/12 10:33:36;;;;;;;7.10;4.55;;;;;;;;;;5034123;28;20531;-48
2021/08/12 10:36:03;;;;;;;8.63;4.43;;;;;;;;;;5054004;28;20065;-48
2021/08/12 10:38:29;;;;;;;9.02;4.35;;;;;;;;;;5053105;28;20100;-47
2021/08/12 10:40:56;;;;;;;11.00;3.83;;;;;;;;;;5037217;28;20052;-48
2021/08/12 10:43:23;;;;;;;8.30;4.50;;;;;;;;;;5021376;28;20052;-48
2021/08/12 10:45:54;;;;;;;6.15;3.50;;;36.00;50.50;;;;;;5021245;28;20044;-48
2021/08/12 10:48:20;;;;;;;11.02;4.13;;;36.20;50.60;;;;;;5020767;28;20049;-49
2021/08/12 10:51:06;;;;;;;10.25;5.32;;;36.20;50.40;;;;;;5055070;28;20060;-47
2021/08/12 10:53:33;;;;;;;4.97;3.38;;;36.20;51.50;;;;;;5054242;28;20074;-48
2021/08/12 10:56:02;;;;;;;7.45;3.65;;;36.20;49.40;;;;;;5053634;28;20045;-47
2021/08/12 10:58:30;;;;;;;5.78;3.35;;;36.30;49.70;;;;;;5054093;28;20479;-48
2021/08/12 11:00:57;;;;;;;5.03;3.67;;;36.30;50.30;;;;;;5054249;28;20120;-47
2021/08/12 11:03:32;;;;;;;5.93;3.97;;;36.30;49.90;;;;;;5056058;28;20465;-47
2021/08/12 11:06:15;;;;;;;6.20;3.35;;;36.30;49.10;;;;;;5056301;28;20049;-47
2021/08/12 11:11:36;;;;;;;9.55;3.97;;;36.90;48.90;;;;;;5057314;28;20045;-48
2021/08/12 11:14:12;;;;;;;9.32;3.92;;;36.40;48.10;;;;;;5056016;28;20469;-48
2021/08/12 11:16:41;;;;;;;5.07;3.53;;;36.50;49.30;;;;;;5056400;28;20045;-48
2021/08/12 11:19:08;;;;;;;7.03;3.67;;;36.20;49.10;;;;;;5056007;28;20029;-47
2021/08/12 11:21:41;;;;;;;7.72;4.32;;;36.00;48.40;;;;;;5056499;28;20056;-48
2021/08/12 11:24:11;;;;;;;8.55;3.78;;;36.40;49.70;;;;;;5056237;28;20033;-47
2021/08/12 11:26:46;;;;;;;7.43;3.53;;;36.60;48.10;;;;;;5070583;28;20072;-47
2021/08/12 11:29:30;;;;;;;5.03;3.72;;;36.80;49.30;;;;;;5056210;28;20033;-48
2021/08/12 11:31:56;;;;;;;4.78;3.28;;;;;;;;;;5056206;28;20037;-48
2021/08/12 11:34:25;;;;;;;5.03;3.42;;;;;;;;;;5055747;28;20044;-48
2021/08/12 11:37:10;;;;;;;5.97;3.75;;;;;;;;;;5070718;28;20049;-48
2021/08/12 11:39:46;;;;;;;5.80;3.97;;;;;;;;;;5055987;28;20443;-48
2021/08/12 11:42:25;;;;;;;5.68;3.88;;;;;;;;;;5055454;28;20029;-47
2021/08/12 11:44:52;;;;;;;10.95;3.97;;;;;;;;;;5055295;28;20037;-48
2021/08/12 11:47:19;;;;;;;5.22;3.20;;;;;;;;;;5055992;28;20028;-49
2021/08/12 11:49:53;;;;;;;6.85;3.88;;;;;;;;;;5056024;28;20067;-48
2021/08/12 11:52:22;;;;;;;8.48;3.72;;;37.40;50.10;;;;;;5055298;28;20029;-48
2021/08/12 11:54:59;;;;;;;5.22;3.78;;;;;;;;;;5070071;28;21174;-48
2021/08/12 11:57:38;;;;;;;9.75;3.92;;;;;;;;;;5055851;28;20053;-48
2021/08/12 12:00:11;;;;;;;5.07;3.60;;;;;;;;;;5055652;28;20025;-47
2021/08/12 12:03:00;;;;;;;9.52;3.55;;;37.50;73.70;;;;;;5055060;28;20037;-48
2021/08/12 12:05:37;;;;;;;5.97;3.67;;;37.10;62.60;;;;;;5055514;28;20048;-47
2021/08/12 12:08:11;;;;;;;5.47;3.35;;;37.30;58.10;;;;;;5055429;28;20480;-48
2021/08/12 12:10:47;;;;;;;5.65;3.47;;;;;;;;;;5055000;28;20472;-48
2021/08/12 12:13:17;;;;;;;6.75;3.92;;;;;;;;;;5069925;28;20439;-48
2021/08/12 12:15:46;;;;;;;14.23;3.67;;;;;;;;;;5055532;28;20028;-48
2021/08/12 12:18:17;;;;;;;5.25;3.78;;;;;;;;;;5054917;28;20048;-48
2021/08/12 12:20:45;;;;;;;4.67;3.57;;;;;;;;;;5055319;28;20492;-47
2021/08/12 12:23:13;;;;;;;5.82;3.08;;;37.80;47.90;;;;;;5055019;28;20318;-47
2021/08/12 12:25:42;;;;;;;7.10;3.58;;;37.90;48.10;;;;;;5054808;28;20426;-48
2021/08/12 12:28:11;;;;;;;5.22;3.40;;;38.20;48.50;;;;;;5055255;28;20037;-48
2021/08/12 12:30:37;;;;;;;5.15;3.42;;;;;;;;;;5055252;28;20449;-48
2021/08/12 12:33:09;;;;;;;5.75;3.72;;;38.50;79.00;;;;;;5054780;28;20554;-47
2021/08/12 12:35:46;;;;;;;6.35;3.65;;;38.00;46.80;;;;;;5055149;28;20041;-48
2021/08/12 12:38:18;;;;;;;6.97;3.53;;;37.90;46.80;;;;;;5054680;28;20047;-48
2021/08/12 12:40:44;;;;;;;6.32;3.33;;;;;;;;;;5054676;28;20041;-48
2021/08/12 12:43:10;;;;;;;9.38;4.13;;;38.20;71.90;;;;;;5054735;28;20111;-48
2021/08/12 12:45:45;;;;;;;10.15;4.60;;;38.10;54.00;;;;;;5052407;28;20129;-47
2021/08/12 12:48:11;;;;;;;7.35;3.63;;;38.10;56.20;;;;;;5054279;28;20071;-48
2021/08/12 12:50:48;;;;;;;5.28;3.70;;;37.80;69.00;;;;;;5054705;28;20036;-47
2021/08/12 12:53:26;;;;;;;5.00;3.38;;;37.40;72.70;;;;;;5069148;28;20052;-47
2021/08/12 12:55:52;;;;;;;6.18;3.45;;;37.60;71.90;;;;;;5053604;28;20028;-48
2021/08/12 12:58:22;;;;;;;5.93;3.33;;;37.20;76.00;;;;;;5051411;28;20374;-47
2021/08/12 13:00:57;;;;;;;4.25;2.95;;;37.20;78.60;;;;;;5054484;28;20031;-47
2021/08/12 13:03:49;;;;;;;7.93;3.53;;;;;;;;;;5053915;28;20124;-48
2021/08/12 13:06:32;;;;;;;7.72;3.42;;;;;;;;;;5052816;28;20056;-47
2021/08/12 13:08:58;;;;;;;7.00;3.58;;;;;;;;;;5054252;28;20021;-48
2021/08/12 13:11:31;;;;;;;6.75;3.40;;;;;;;;;;5054024;28;20031;-48
2021/08/12 13:14:14;;;;;;;4.43;3.40;;;;;;;;;;5068518;28;20055;-47
2021/08/12 13:16:40;;;;;;;5.05;3.30;;;;;;;;;;5053693;28;20052;-48
2021/08/12 13:19:17;;;;;;;9.15;3.63;;;;;;;;;;5054151;28;20036;-47
2021/08/12 13:21:43;;;;;;;4.10;3.20;;;;;;;;;;5054033;28;20033;-49
2021/08/12 13:24:14;;;;;;;7.00;3.50;;;;;;;;;;5053694;28;20028;-48
2021/08/12 13:26:41;;;;;;;6.10;4.20;;;;;;;;;;5053882;28;20032;-48
2021/08/12 13:29:13;;;;;;;6.40;3.33;;;;;;;;;;5068544;28;20048;-48
2021/08/12 13:31:41;;;;;;;5.40;3.42;;;37.90;45.70;;;;;;5068346;28;20045;-48
2021/08/12 13:34:07;;;;;;;4.93;3.45;;;38.20;45.10;;;;;;5051313;28;20055;-48
2021/08/12 13:36:33;;;;;;;3.90;3.15;;;38.20;46.20;;;;;;5001389;28;20048;-48
2021/08/12 13:38:59;;;;;;;6.18;3.10;;;38.10;45.70;;;;;;5018035;28;20558;-47
2021/08/12 13:41:25;;;;;;;6.93;3.15;;;38.00;47.00;;;;;;5051382;28;20028;-48
2021/08/12 13:43:51;;;;;;;4.30;3.00;;;37.80;46.30;;;;;;5051284;28;20051;-47
2021/08/12 13:46:17;;;;;;;5.65;3.45;;;37.50;46.40;;;;;;5051189;28;20120;-47
2021/08/12 13:48:42;;;;;;;4.78;3.08;;;37.40;45.80;;;;;;5001561;28;20037;-48
2021/08/12 13:51:08;;;;;;;5.07;3.42;;;37.30;47.00;;;;;;5051458;28;20535;-47
2021/08/12 13:53:34;;;;;;;6.55;3.83;;;;;;;;;;5050911;28;20370;-48
2021/08/12 13:56:00;;;;;;;6.30;3.70;;;37.30;45.20;;;;;;5051096;28;20037;-47
2021/08/12 13:58:26;;;;;;;6.32;3.67;;;;;;;;;;5051123;28;20040;-47
2021/08/12 14:00:52;;;;;;;5.32;2.90;;;37.70;79.90;;;;;;5050846;28;20056;-47
2021/08/12 14:03:21;;;;;;;6.53;3.50;;;37.70;46.80;;;;;;5017635;28;20404;-48
2021/08/12 14:05:47;;;;;;;4.07;3.05;;;37.50;46.80;;;;;;5052544;28;20037;-47
2021/08/12 14:08:15;;;;;;;4.78;3.38;;;37.40;46.30;;;;;;5052824;28;20191;-48
2021/08/12 14:10:42;;;;;;;5.60;3.45;;;37.30;47.10;;;;;;5053282;28;20472;-48